sensor_id;sensor_type;location;lat;lon;timestamp;pressure;altitude;pressure_sealevel;temperature;humidity
65718;BME280;52445;52.466;-1.016;2023-03-25T00:00:12;98088.59;;;8.77;66.37
65718;BME280;52445;52.466;-1.016;2023-03-25T00:02:42;98104.00;;;8.80;67.03
65718;BME280;52445;52.466;-1.016;2023-03-25T00:05:11;98096.22;;;8.81;66.24
65718;BME280;52445;52.466;-1.016;2023-03-25T00:07:41;98096.25;;;8.80;66.72
65718;BME280;52445;52.466;-1.016;2023-03-25T00:10:09;98095.53;;;8.74;66.91
65718;BME280;52445;52.466;-1.016;2023-03-25T00:12:35;98105.84;;;8.74;66.44
65718;BME280;52445;52.466;-1.016;2023-03-25T00:15:03;98104.19;;;8.73;66.72
65718;BME280;52445;52.466;-1.016;2023-03-25T00:17:30;98107.53;;;8.76;66.43
65718;BME280;52445;52.466;-1.016;2023-03-25T00:19:57;98112.72;;;8.76;66.23
65718;BME280;52445;52.466;-1.016;2023-03-25T00:22:25;98104.06;;;8.77;66.29
65718;BME280;52445;52.466;-1.016;2023-03-25T00:24:52;98121.34;;;8.74;66.43
65718;BME280;52445;52.466;-1.016;2023-03-25T00:27:19;98120.34;;;8.80;66.78
65718;BME280;52445;52.466;-1.016;2023-03-25T00:29:46;98121.28;;;8.78;66.56
65718;BME280;52445;52.466;-1.016;2023-03-25T00:32:14;98117.78;;;8.79;66.49
65718;BME280;52445;52.466;-1.016;2023-03-25T00:34:41;98117.78;;;8.79;66.30
65718;BME280;52445;52.466;-1.016;2023-03-25T00:37:14;98113.50;;;8.79;66.79
65718;BME280;52445;52.466;-1.016;2023-03-25T00:39:47;98117.72;;;8.82;66.60
65718;BME280;52445;52.466;-1.016;2023-03-25T00:42:15;98121.19;;;8.81;66.55
65718;BME280;52445;52.466;-1.016;2023-03-25T00:44:42;98111.72;;;8.80;66.73
65718;BME280;52445;52.466;-1.016;2023-03-25T00:47:09;98101.41;;;8.80;66.42
65718;BME280;52445;52.466;-1.016;2023-03-25T00:49:37;98110.06;;;8.79;66.56
65718;BME280;52445;52.466;-1.016;2023-03-25T00:52:03;98106.66;;;8.77;66.74
65718;BME280;52445;52.466;-1.016;2023-03-25T00:54:30;98112.81;;;8.71;66.19
65718;BME280;52445;52.466;-1.016;2023-03-25T00:56:59;98113.78;;;8.67;66.57
65718;BME280;52445;52.466;-1.016;2023-03-25T00:59:26;98119.97;;;8.61;67.09
65718;BME280;52445;52.466;-1.016;2023-03-25T01:01:52;98114.97;;;8.55;67.20
65718;BME280;52445;52.466;-1.016;2023-03-25T01:04:21;98113.31;;;8.51;67.01
65718;BME280;52445;52.466;-1.016;2023-03-25T01:06:48;98109.94;;;8.48;67.18
65718;BME280;52445;52.466;-1.016;2023-03-25T01:09:18;98125.47;;;8.45;67.22
65718;BME280;52445;52.466;-1.016;2023-03-25T01:11:46;98117.00;;;8.40;67.69
65718;BME280;52445;52.466;-1.016;2023-03-25T01:14:16;98125.66;;;8.39;67.47
65718;BME280;52445;52.466;-1.016;2023-03-25T01:16:43;98114.50;;;8.37;68.07
65718;BME280;52445;52.466;-1.016;2023-03-25T01:19:11;98108.56;;;8.35;67.29
65718;BME280;52445;52.466;-1.016;2023-03-25T01:21:39;98106.06;;;8.30;68.17
65718;BME280;52445;52.466;-1.016;2023-03-25T01:24:07;98112.16;;;8.28;68.46
65718;BME280;52445;52.466;-1.016;2023-03-25T01:26:34;98119.09;;;8.26;67.98
65718;BME280;52445;52.466;-1.016;2023-03-25T01:29:01;98126.03;;;8.23;67.84
65718;BME280;52445;52.466;-1.016;2023-03-25T01:31:27;98117.38;;;8.25;68.03
65718;BME280;52445;52.466;-1.016;2023-03-25T01:33:56;98125.84;;;8.30;68.20
65718;BME280;52445;52.466;-1.016;2023-03-25T01:36:25;98128.41;;;8.31;68.88
65718;BME280;52445;52.466;-1.016;2023-03-25T01:38:55;98137.88;;;8.31;68.86
65718;BME280;52445;52.466;-1.016;2023-03-25T01:41:27;98131.78;;;8.35;69.04
65718;BME280;52445;52.466;-1.016;2023-03-25T01:46:41;98133.34;;;8.41;68.76
65718;BME280;52445;52.466;-1.016;2023-03-25T01:49:15;98125.56;;;8.42;68.74
65718;BME280;52445;52.466;-1.016;2023-03-25T01:51:44;98125.47;;;8.45;68.16
65718;BME280;52445;52.466;-1.016;2023-03-25T01:54:12;98132.56;;;8.37;69.43
65718;BME280;52445;52.466;-1.016;2023-03-25T01:56:45;98130.63;;;8.45;68.51
65718;BME280;52445;52.466;-1.016;2023-03-25T01:59:15;98128.88;;;8.47;68.83
65718;BME280;52445;52.466;-1.016;2023-03-25T02:01:45;98129.84;;;8.43;68.37
65718;BME280;52445;52.466;-1.016;2023-03-25T02:04:14;98133.28;;;8.44;68.42
65718;BME280;52445;52.466;-1.016;2023-03-25T02:06:49;98129.03;;;8.41;69.10
65718;BME280;52445;52.466;-1.016;2023-03-25T02:09:21;98123.03;;;8.41;68.54
65718;BME280;52445;52.466;-1.016;2023-03-25T02:11:49;98131.63;;;8.40;69.33
65718;BME280;52445;52.466;-1.016;2023-03-25T02:14:21;98117.00;;;8.40;68.67
65718;BME280;52445;52.466;-1.016;2023-03-25T02:28:08;98132.19;;;8.53;69.11
65718;BME280;52445;52.466;-1.016;2023-03-25T02:30:52;98130.50;;;8.52;68.79
65718;BME280;52445;52.466;-1.016;2023-03-25T02:39:13;98134.97;;;8.45;69.67
65718;BME280;52445;52.466;-1.016;2023-03-25T02:41:51;98129.03;;;8.41;68.43
65718;BME280;52445;52.466;-1.016;2023-03-25T02:44:31;98131.69;;;8.38;69.46
65718;BME280;52445;52.466;-1.016;2023-03-25T02:47:05;98135.06;;;8.40;69.49
65718;BME280;52445;52.466;-1.016;2023-03-25T02:49:36;98143.75;;;8.38;68.97
65718;BME280;52445;52.466;-1.016;2023-03-25T02:54:47;98141.13;;;8.74;68.99
65718;BME280;52445;52.466;-1.016;2023-03-25T02:57:18;98134.94;;;8.46;69.65
65718;BME280;52445;52.466;-1.016;2023-03-25T02:59:47;98146.28;;;8.39;69.24
65718;BME280;52445;52.466;-1.016;2023-03-25T03:02:20;98165.31;;;8.35;69.90
65718;BME280;52445;52.466;-1.016;2023-03-25T03:04:50;98163.69;;;8.31;69.13
65718;BME280;52445;52.466;-1.016;2023-03-25T03:10:20;98142.41;;;8.21;69.39
65718;BME280;52445;52.466;-1.016;2023-03-25T03:15:46;98145.03;;;8.19;69.65
65718;BME280;52445;52.466;-1.016;2023-03-25T03:18:27;98155.41;;;8.16;69.04
65718;BME280;52445;52.466;-1.016;2023-03-25T03:21:05;98144.56;;;8.02;70.15
65718;BME280;52445;52.466;-1.016;2023-03-25T03:24:03;98155.72;;;8.04;69.50
65718;BME280;52445;52.466;-1.016;2023-03-25T03:26:44;98150.56;;;8.04;70.46
65718;BME280;52445;52.466;-1.016;2023-03-25T03:29:19;98148.84;;;8.03;69.30
65718;BME280;52445;52.466;-1.016;2023-03-25T03:31:53;98159.25;;;8.00;69.10
65718;BME280;52445;52.466;-1.016;2023-03-25T03:37:11;98172.16;;;7.98;69.33
65718;BME280;52445;52.466;-1.016;2023-03-25T03:39:41;98178.31;;;7.92;70.41
65718;BME280;52445;52.466;-1.016;2023-03-25T03:42:17;98178.31;;;7.92;70.27
65718;BME280;52445;52.466;-1.016;2023-03-25T03:44:50;98179.94;;;7.96;69.46
65718;BME280;52445;52.466;-1.016;2023-03-25T03:47:24;98182.56;;;7.93;69.29
65718;BME280;52445;52.466;-1.016;2023-03-25T03:49:57;98192.00;;;7.94;69.52
65718;BME280;52445;52.466;-1.016;2023-03-25T03:52:31;98190.31;;;7.93;69.88
65718;BME280;52445;52.466;-1.016;2023-03-25T03:55:08;98193.78;;;7.92;70.39
65718;BME280;52445;52.466;-1.016;2023-03-25T03:57:40;98185.16;;;7.93;70.35
65718;BME280;52445;52.466;-1.016;2023-03-25T04:00:14;98196.34;;;7.92;70.88
65718;BME280;52445;52.466;-1.016;2023-03-25T04:05:22;98185.22;;;7.90;70.03
65718;BME280;52445;52.466;-1.016;2023-03-25T04:07:53;98189.44;;;7.93;69.29
65718;BME280;52445;52.466;-1.016;2023-03-25T04:10:35;98181.75;;;7.91;69.64
65718;BME280;52445;52.466;-1.016;2023-03-25T04:13:08;98193.78;;;7.92;70.04
65718;BME280;52445;52.466;-1.016;2023-03-25T04:15:37;98201.56;;;7.89;69.67
65718;BME280;52445;52.466;-1.016;2023-03-25T04:18:03;98202.44;;;7.88;69.76
65718;BME280;52445;52.466;-1.016;2023-03-25T04:20:32;98197.28;;;7.88;69.60
65718;BME280;52445;52.466;-1.016;2023-03-25T04:23:00;98199.00;;;7.88;69.52
65718;BME280;52445;52.466;-1.016;2023-03-25T04:25:26;98202.38;;;7.91;70.17
65718;BME280;52445;52.466;-1.016;2023-03-25T04:27:54;98215.22;;;7.93;69.63
65718;BME280;52445;52.466;-1.016;2023-03-25T04:30:26;98210.94;;;7.93;70.07
65718;BME280;52445;52.466;-1.016;2023-03-25T04:32:53;98216.09;;;7.93;69.68
65718;BME280;52445;52.466;-1.016;2023-03-25T04:35:20;98221.13;;;8.00;70.10
65718;BME280;52445;52.466;-1.016;2023-03-25T04:37:47;98224.44;;;8.05;69.50
65718;BME280;52445;52.466;-1.016;2023-03-25T04:40:15;98221.78;;;8.08;69.77
65718;BME280;52445;52.466;-1.016;2023-03-25T04:42:45;98227.69;;;8.13;69.02
65718;BME280;52445;52.466;-1.016;2023-03-25T04:45:13;98233.66;;;8.17;69.22
65718;BME280;52445;52.466;-1.016;2023-03-25T04:47:45;98232.72;;;8.19;69.63
65718;BME280;52445;52.466;-1.016;2023-03-25T04:50:28;98236.97;;;8.22;69.65
65718;BME280;52445;52.466;-1.016;2023-03-25T04:52:55;98257.44;;;8.28;68.97
65718;BME280;52445;52.466;-1.016;2023-03-25T04:55:23;98239.34;;;8.30;69.46
65718;BME280;52445;52.466;-1.016;2023-03-25T04:57:53;98249.59;;;8.33;68.44
65718;BME280;52445;52.466;-1.016;2023-03-25T05:00:22;98243.50;;;8.37;69.07
65718;BME280;52445;52.466;-1.016;2023-03-25T05:02:52;98246.00;;;8.40;68.48
65718;BME280;52445;52.466;-1.016;2023-03-25T05:05:21;98247.00;;;8.34;69.21
65718;BME280;52445;52.466;-1.016;2023-03-25T05:07:50;98244.31;;;8.39;68.69
65718;BME280;52445;52.466;-1.016;2023-03-25T05:10:19;98244.25;;;8.42;68.48
65718;BME280;52445;52.466;-1.016;2023-03-25T05:12:46;98254.56;;;8.42;68.64
65718;BME280;52445;52.466;-1.016;2023-03-25T05:15:14;98253.69;;;8.43;68.19
65718;BME280;52445;52.466;-1.016;2023-03-25T05:17:42;98246.75;;;8.45;69.04
65718;BME280;52445;52.466;-1.016;2023-03-25T05:20:10;98251.16;;;8.40;68.27
65718;BME280;52445;52.466;-1.016;2023-03-25T05:22:37;98255.59;;;8.35;68.78
65718;BME280;52445;52.466;-1.016;2023-03-25T05:25:05;98257.38;;;8.31;69.04
65718;BME280;52445;52.466;-1.016;2023-03-25T05:27:33;98266.03;;;8.29;68.43
65718;BME280;52445;52.466;-1.016;2023-03-25T05:30:01;98274.75;;;8.23;68.92
65718;BME280;52445;52.466;-1.016;2023-03-25T05:32:28;98277.34;;;8.23;68.59
65718;BME280;52445;52.466;-1.016;2023-03-25T05:34:56;98287.69;;;8.21;69.16
65718;BME280;52445;52.466;-1.016;2023-03-25T05:37:22;98281.59;;;8.24;69.58
65718;BME280;52445;52.466;-1.016;2023-03-25T05:39:49;98280.72;;;8.27;69.17
65718;BME280;52445;52.466;-1.016;2023-03-25T05:42:18;98284.94;;;8.29;69.35
65718;BME280;52445;52.466;-1.016;2023-03-25T05:44:49;98281.56;;;8.26;69.65
65718;BME280;52445;52.466;-1.016;2023-03-25T05:47:18;98286.00;;;8.20;69.45
65718;BME280;52445;52.466;-1.016;2023-03-25T05:49:47;98283.56;;;8.13;70.37
65718;BME280;52445;52.466;-1.016;2023-03-25T05:52:15;98290.38;;;8.17;70.28
65718;BME280;52445;52.466;-1.016;2023-03-25T05:54:44;98295.41;;;8.21;68.85
65718;BME280;52445;52.466;-1.016;2023-03-25T05:57:11;98292.91;;;8.18;69.56
65718;BME280;52445;52.466;-1.016;2023-03-25T05:59:38;98300.69;;;8.17;69.54
65718;BME280;52445;52.466;-1.016;2023-03-25T06:02:08;98307.53;;;8.18;69.94
65718;BME280;52445;52.466;-1.016;2023-03-25T06:04:37;98305.00;;;8.16;69.80
65718;BME280;52445;52.466;-1.016;2023-03-25T06:07:07;98303.22;;;8.18;69.13
65718;BME280;52445;52.466;-1.016;2023-03-25T06:09:41;98304.88;;;8.22;70.22
65718;BME280;52445;52.466;-1.016;2023-03-25T06:12:14;98287.72;;;8.20;69.50
65718;BME280;52445;52.466;-1.016;2023-03-25T06:14:41;98306.69;;;8.17;70.24
65718;BME280;52445;52.466;-1.016;2023-03-25T06:17:12;98316.91;;;8.22;69.83
65718;BME280;52445;52.466;-1.016;2023-03-25T06:19:38;98321.97;;;8.27;69.79
65718;BME280;52445;52.466;-1.016;2023-03-25T06:22:08;98316.81;;;8.27;69.27
65718;BME280;52445;52.466;-1.016;2023-03-25T06:24:36;98324.63;;;8.23;69.48
65718;BME280;52445;52.466;-1.016;2023-03-25T06:27:04;98332.28;;;8.27;70.60
65718;BME280;52445;52.466;-1.016;2023-03-25T06:29:34;98326.19;;;8.31;69.88
65718;BME280;52445;52.466;-1.016;2023-03-25T06:32:03;98338.25;;;8.29;70.81
65718;BME280;52445;52.466;-1.016;2023-03-25T06:34:30;98339.16;;;8.28;70.51
65718;BME280;52445;52.466;-1.016;2023-03-25T06:36:58;98337.31;;;8.33;69.57
65718;BME280;52445;52.466;-1.016;2023-03-25T06:39:26;98344.16;;;8.34;69.88
65718;BME280;52445;52.466;-1.016;2023-03-25T06:41:58;98349.28;;;8.35;70.36
65718;BME280;52445;52.466;-1.016;2023-03-25T06:44:26;98357.69;;;8.45;69.56
65718;BME280;52445;52.466;-1.016;2023-03-25T06:46:52;98361.09;;;8.47;70.35
65718;BME280;52445;52.466;-1.016;2023-03-25T06:49:19;98366.03;;;8.58;70.29
65718;BME280;52445;52.466;-1.016;2023-03-25T06:51:46;98368.53;;;8.63;70.03
65718;BME280;52445;52.466;-1.016;2023-03-25T06:54:13;98362.47;;;8.64;70.06
65718;BME280;52445;52.466;-1.016;2023-03-25T06:56:40;98375.31;;;8.67;69.82
65718;BME280;52445;52.466;-1.016;2023-03-25T06:59:07;98360.56;;;8.72;69.31
65718;BME280;52445;52.466;-1.016;2023-03-25T07:01:33;98370.78;;;8.79;69.72
65718;BME280;52445;52.466;-1.016;2023-03-25T07:04:00;98382.72;;;8.83;69.62
65718;BME280;52445;52.466;-1.016;2023-03-25T07:06:27;98381.88;;;8.82;70.00
65718;BME280;52445;52.466;-1.016;2023-03-25T07:08:53;98395.72;;;8.78;69.49
65718;BME280;52445;52.466;-1.016;2023-03-25T07:11:25;98393.91;;;8.83;69.87
65718;BME280;52445;52.466;-1.016;2023-03-25T07:13:52;98415.22;;;8.93;69.36
65718;BME280;52445;52.466;-1.016;2023-03-25T07:16:20;98411.50;;;9.04;69.42
65718;BME280;52445;52.466;-1.016;2023-03-25T07:18:47;98415.66;;;9.11;69.38
65718;BME280;52445;52.466;-1.016;2023-03-25T07:21:15;98422.44;;;9.15;69.00
65718;BME280;52445;52.466;-1.016;2023-03-25T07:23:42;98419.06;;;9.49;69.36
65718;BME280;52445;52.466;-1.016;2023-03-25T07:26:09;98436.44;;;10.46;68.18
65718;BME280;52445;52.466;-1.016;2023-03-25T07:28:36;98437.16;;;11.10;65.88
65718;BME280;52445;52.466;-1.016;2023-03-25T07:31:06;98444.19;;;11.62;66.12
65718;BME280;52445;52.466;-1.016;2023-03-25T07:33:33;98451.72;;;12.46;64.03
65718;BME280;52445;52.466;-1.016;2023-03-25T07:35:59;98452.00;;;12.86;63.00
65718;BME280;52445;52.466;-1.016;2023-03-25T07:38:26;98450.34;;;13.07;62.11
65718;BME280;52445;52.466;-1.016;2023-03-25T07:40:53;98456.50;;;13.05;61.49
65718;BME280;52445;52.466;-1.016;2023-03-25T07:43:20;98443.69;;;13.00;60.43
65718;BME280;52445;52.466;-1.016;2023-03-25T07:45:47;98449.56;;;13.28;61.26
65718;BME280;52445;52.466;-1.016;2023-03-25T07:48:13;98466.25;;;13.44;60.79
65718;BME280;52445;52.466;-1.016;2023-03-25T07:50:42;98468.00;;;13.66;59.67
65718;BME280;52445;52.466;-1.016;2023-03-25T07:53:09;98473.56;;;13.79;59.12
65718;BME280;52445;52.466;-1.016;2023-03-25T07:55:36;98488.00;;;13.86;58.24
65718;BME280;52445;52.466;-1.016;2023-03-25T07:58:03;98486.63;;;13.98;57.43
65718;BME280;52445;52.466;-1.016;2023-03-25T08:00:30;98497.88;;;13.78;57.96
65718;BME280;52445;52.466;-1.016;2023-03-25T08:02:56;98501.47;;;13.53;58.26
65718;BME280;52445;52.466;-1.016;2023-03-25T08:05:23;98500.22;;;13.17;57.69
65718;BME280;52445;52.466;-1.016;2023-03-25T08:07:50;98513.59;;;12.84;59.04
65718;BME280;52445;52.466;-1.016;2023-03-25T08:10:18;98529.09;;;12.62;58.63
65718;BME280;52445;52.466;-1.016;2023-03-25T08:12:45;98536.97;;;12.60;60.00
65718;BME280;52445;52.466;-1.016;2023-03-25T08:15:12;98538.31;;;12.45;60.41
65718;BME280;52445;52.466;-1.016;2023-03-25T08:17:39;98542.94;;;12.37;60.16
65718;BME280;52445;52.466;-1.016;2023-03-25T08:20:06;98542.34;;;12.28;60.62
65718;BME280;52445;52.466;-1.016;2023-03-25T08:22:33;98559.72;;;12.26;59.45
65718;BME280;52445;52.466;-1.016;2023-03-25T08:25:01;98564.91;;;12.26;59.64
65718;BME280;52445;52.466;-1.016;2023-03-25T08:27:28;98568.22;;;12.31;60.08
65718;BME280;52445;52.466;-1.016;2023-03-25T08:29:55;98577.88;;;12.26;60.04
65718;BME280;52445;52.466;-1.016;2023-03-25T08:32:23;98575.31;;;12.52;59.94
65718;BME280;52445;52.466;-1.016;2023-03-25T08:34:50;98579.59;;;12.78;59.18
65718;BME280;52445;52.466;-1.016;2023-03-25T08:37:16;98583.91;;;12.79;58.60
65718;BME280;52445;52.466;-1.016;2023-03-25T08:39:43;98592.91;;;12.69;58.86
65718;BME280;52445;52.466;-1.016;2023-03-25T08:42:11;98585.22;;;12.40;58.54
65718;BME280;52445;52.466;-1.016;2023-03-25T08:44:38;98602.06;;;12.28;59.21
65718;BME280;52445;52.466;-1.016;2023-03-25T08:47:05;98609.13;;;11.96;58.04
65718;BME280;52445;52.466;-1.016;2023-03-25T08:49:32;98612.53;;;11.68;57.42
65718;BME280;52445;52.466;-1.016;2023-03-25T08:51:58;98620.75;;;11.54;58.93
65718;BME280;52445;52.466;-1.016;2023-03-25T08:54:27;98626.25;;;11.43;58.23
65718;BME280;52445;52.466;-1.016;2023-03-25T08:56:54;98620.81;;;11.22;59.46
65718;BME280;52445;52.466;-1.016;2023-03-25T08:59:21;98626.19;;;11.14;60.20
65718;BME280;52445;52.466;-1.016;2023-03-25T09:01:48;98626.97;;;11.18;60.32
65718;BME280;52445;52.466;-1.016;2023-03-25T09:04:15;98621.47;;;10.97;59.32
65718;BME280;52445;52.466;-1.016;2023-03-25T09:06:41;98631.66;;;11.05;59.56
65718;BME280;52445;52.466;-1.016;2023-03-25T09:09:28;98638.34;;;11.12;60.28
65718;BME280;52445;52.466;-1.016;2023-03-25T09:11:55;98637.72;;;11.34;60.56
65718;BME280;52445;52.466;-1.016;2023-03-25T09:14:22;98639.84;;;11.51;60.13
65718;BME280;52445;52.466;-1.016;2023-03-25T09:16:48;98644.00;;;11.57;59.39
65718;BME280;52445;52.466;-1.016;2023-03-25T09:19:15;98645.03;;;11.51;58.38
65718;BME280;52445;52.466;-1.016;2023-03-25T09:21:41;98659.59;;;11.55;60.12
65718;BME280;52445;52.466;-1.016;2023-03-25T09:24:08;98658.81;;;11.53;59.23
65718;BME280;52445;52.466;-1.016;2023-03-25T09:26:36;98672.75;;;11.49;60.32
65718;BME280;52445;52.466;-1.016;2023-03-25T09:29:02;98674.44;;;11.50;59.51
65718;BME280;52445;52.466;-1.016;2023-03-25T09:31:29;98676.19;;;11.50;59.60
65718;BME280;52445;52.466;-1.016;2023-03-25T09:33:56;98678.09;;;11.43;60.14
65718;BME280;52445;52.466;-1.016;2023-03-25T09:36:22;98692.63;;;11.49;60.20
65718;BME280;52445;52.466;-1.016;2023-03-25T09:38:49;98690.00;;;11.50;59.91
65718;BME280;52445;52.466;-1.016;2023-03-25T09:44:21;98693.75;;;11.40;59.76
65718;BME280;52445;52.466;-1.016;2023-03-25T09:46:49;98702.06;;;11.51;59.43
65718;BME280;52445;52.466;-1.016;2023-03-25T09:49:20;98693.47;;;11.79;59.31
65718;BME280;52445;52.466;-1.016;2023-03-25T09:51:50;98711.47;;;11.86;59.14
65718;BME280;52445;52.466;-1.016;2023-03-25T09:54:26;98716.91;;;11.76;59.64
65718;BME280;52445;52.466;-1.016;2023-03-25T09:57:00;98725.69;;;11.72;58.31
65718;BME280;52445;52.466;-1.016;2023-03-25T09:59:41;98719.94;;;11.61;58.78
65718;BME280;52445;52.466;-1.016;2023-03-25T10:24:23;98759.56;;;12.56;56.29
65718;BME280;52445;52.466;-1.016;2023-03-25T10:26:58;98767.91;;;12.93;58.46
65718;BME280;52445;52.466;-1.016;2023-03-25T10:29:33;98767.50;;;13.31;56.56
65718;BME280;52445;52.466;-1.016;2023-03-25T10:32:05;98769.03;;;13.62;55.75
65718;BME280;52445;52.466;-1.016;2023-03-25T10:34:38;98758.69;;;13.61;53.73
65718;BME280;52445;52.466;-1.016;2023-03-25T10:37:09;98771.53;;;13.66;53.53
65718;BME280;52445;52.466;-1.016;2023-03-25T10:39:40;98773.31;;;13.40;52.73
65718;BME280;52445;52.466;-1.016;2023-03-25T10:44:53;98785.66;;;13.33;53.96
65718;BME280;52445;52.466;-1.016;2023-03-25T10:47:24;98791.22;;;13.49;54.02
65718;BME280;52445;52.466;-1.016;2023-03-25T10:49:52;98794.25;;;13.86;54.64
65718;BME280;52445;52.466;-1.016;2023-03-25T10:52:20;98794.75;;;13.96;52.28
65718;BME280;52445;52.466;-1.016;2023-03-25T10:54:50;98802.31;;;13.78;52.69
65718;BME280;52445;52.466;-1.016;2023-03-25T10:57:28;98808.50;;;13.75;52.56
65718;BME280;52445;52.466;-1.016;2023-03-25T11:02:40;98819.22;;;13.92;52.76
65718;BME280;52445;52.466;-1.016;2023-03-25T11:05:08;98842.50;;;13.71;53.12
65718;BME280;52445;52.466;-1.016;2023-03-25T11:07:37;98831.03;;;13.77;53.56
65718;BME280;52445;52.466;-1.016;2023-03-25T11:12:50;98838.03;;;13.74;52.61
65718;BME280;52445;52.466;-1.016;2023-03-25T11:15:34;98843.81;;;13.57;51.93
65718;BME280;52445;52.466;-1.016;2023-03-25T11:20:45;98860.00;;;13.66;54.00
65718;BME280;52445;52.466;-1.016;2023-03-25T11:23:34;98865.75;;;13.75;53.58
65718;BME280;52445;52.466;-1.016;2023-03-25T11:26:05;98871.00;;;13.74;53.07
65718;BME280;52445;52.466;-1.016;2023-03-25T11:28:36;98876.84;;;13.81;53.74
65718;BME280;52445;52.466;-1.016;2023-03-25T11:33:44;98873.41;;;13.80;53.92
65718;BME280;52445;52.466;-1.016;2023-03-25T11:36:31;98882.31;;;13.73;53.71
65718;BME280;52445;52.466;-1.016;2023-03-25T11:39:08;98877.09;;;13.73;52.98
65718;BME280;52445;52.466;-1.016;2023-03-25T11:41:36;98885.81;;;13.72;53.76
65718;BME280;52445;52.466;-1.016;2023-03-25T11:44:04;98883.84;;;13.79;54.24
65718;BME280;52445;52.466;-1.016;2023-03-25T11:46:32;98878.16;;;13.93;54.02
65718;BME280;52445;52.466;-1.016;2023-03-25T11:49:09;98878.41;;;14.10;53.02
65718;BME280;52445;52.466;-1.016;2023-03-25T11:51:37;98881.03;;;14.10;52.23
65718;BME280;52445;52.466;-1.016;2023-03-25T11:54:07;98875.00;;;14.08;52.32
65718;BME280;52445;52.466;-1.016;2023-03-25T11:56:39;98880.09;;;14.11;52.27
65718;BME280;52445;52.466;-1.016;2023-03-25T11:59:17;98886.56;;;14.25;53.28
65718;BME280;52445;52.466;-1.016;2023-03-25T12:01:46;98881.94;;;14.33;52.65
65718;BME280;52445;52.466;-1.016;2023-03-25T12:04:22;98876.47;;;14.39;51.66
65718;BME280;52445;52.466;-1.016;2023-03-25T12:06:51;98887.00;;;14.36;52.81
65718;BME280;52445;52.466;-1.016;2023-03-25T12:09:18;98895.16;;;14.51;53.00
65718;BME280;52445;52.466;-1.016;2023-03-25T12:20:07;98910.53;;;14.83;51.58
65718;BME280;52445;52.466;-1.016;2023-03-25T12:23:01;98899.78;;;14.67;50.52
65718;BME280;52445;52.466;-1.016;2023-03-25T12:37:05;98910.84;;;15.40;51.81
65718;BME280;52445;52.466;-1.016;2023-03-25T12:45:12;98903.91;;;15.62;51.81
65718;BME280;52445;52.466;-1.016;2023-03-25T12:51:02;98911.28;;;15.73;52.02
65718;BME280;52445;52.466;-1.016;2023-03-25T13:07:10;98914.63;;;15.97;50.47
65718;BME280;52445;52.466;-1.016;2023-03-25T13:12:29;98929.41;;;15.98;51.52
65718;BME280;52445;52.466;-1.016;2023-03-25T13:17:49;98917.56;;;15.89;50.94
65718;BME280;52445;52.466;-1.016;2023-03-25T13:20:17;98930.09;;;15.81;51.40
65718;BME280;52445;52.466;-1.016;2023-03-25T13:22:49;98931.97;;;15.77;50.96
65718;BME280;52445;52.466;-1.016;2023-03-25T13:25:23;98932.03;;;15.55;51.16
65718;BME280;52445;52.466;-1.016;2023-03-25T13:27:54;98950.00;;;15.40;52.19
65718;BME280;52445;52.466;-1.016;2023-03-25T13:30:33;98932.03;;;15.55;52.09
65718;BME280;52445;52.466;-1.016;2023-03-25T13:33:06;98934.25;;;15.64;51.88
65718;BME280;52445;52.466;-1.016;2023-03-25T13:35:44;98935.09;;;15.44;51.23
65718;BME280;52445;52.466;-1.016;2023-03-25T13:38:23;98945.19;;;15.52;51.65
65718;BME280;52445;52.466;-1.016;2023-03-25T13:41:04;98933.69;;;15.35;50.24
65718;BME280;52445;52.466;-1.016;2023-03-25T13:46:28;98943.50;;;15.06;50.47
65718;BME280;52445;52.466;-1.016;2023-03-25T13:49:02;98943.19;;;14.68;49.75
65718;BME280;52445;52.466;-1.016;2023-03-25T13:51:31;98940.47;;;14.71;50.25
65718;BME280;52445;52.466;-1.016;2023-03-25T14:08:14;98944.09;;;14.43;51.84
65718;BME280;52445;52.466;-1.016;2023-03-25T14:13:36;98953.50;;;14.23;51.02
65718;BME280;52445;52.466;-1.016;2023-03-25T14:16:07;98951.66;;;14.25;50.69
65718;BME280;52445;52.466;-1.016;2023-03-25T14:18:45;98966.16;;;14.32;51.51
65718;BME280;52445;52.466;-1.016;2023-03-25T14:21:27;98969.59;;;14.34;51.41
65718;BME280;52445;52.466;-1.016;2023-03-25T14:26:45;98970.69;;;14.27;50.96
65718;BME280;52445;52.466;-1.016;2023-03-25T14:43:38;98986.44;;;14.97;50.72
65718;BME280;52445;52.466;-1.016;2023-03-25T14:59:31;99005.63;;;14.71;50.68
65718;BME280;52445;52.466;-1.016;2023-03-25T15:02:10;99012.66;;;14.69;50.93
65718;BME280;52445;52.466;-1.016;2023-03-25T15:04:40;99021.22;;;14.72;51.13
65718;BME280;52445;52.466;-1.016;2023-03-25T15:07:11;99027.97;;;14.78;51.28
65718;BME280;52445;52.466;-1.016;2023-03-25T15:09:50;99032.44;;;14.74;50.96
65718;BME280;52445;52.466;-1.016;2023-03-25T15:12:19;99024.47;;;14.79;51.57
65718;BME280;52445;52.466;-1.016;2023-03-25T15:14:54;99022.78;;;14.78;51.20
65718;BME280;52445;52.466;-1.016;2023-03-25T15:17:43;99025.22;;;14.83;50.28
65718;BME280;52445;52.466;-1.016;2023-03-25T15:20:24;99025.84;;;14.89;50.90
65718;BME280;52445;52.466;-1.016;2023-03-25T15:23:19;99036.16;;;14.93;49.60
65718;BME280;52445;52.466;-1.016;2023-03-25T15:25:53;99032.31;;;15.03;49.68
65718;BME280;52445;52.466;-1.016;2023-03-25T15:37:00;99036.16;;;14.93;49.23
65718;BME280;52445;52.466;-1.016;2023-03-25T16:03:11;99029.97;;;14.95;48.06
65718;BME280;52445;52.466;-1.016;2023-03-25T16:05:45;99025.63;;;14.96;49.26
65718;BME280;52445;52.466;-1.016;2023-03-25T16:08:16;99025.56;;;14.97;48.79
65718;BME280;52445;52.466;-1.016;2023-03-25T16:10:44;99022.19;;;14.94;49.51
65718;BME280;52445;52.466;-1.016;2023-03-25T16:13:14;99032.88;;;14.87;48.56
65718;BME280;52445;52.466;-1.016;2023-03-25T16:15:50;99033.28;;;14.75;49.22
65718;BME280;52445;52.466;-1.016;2023-03-25T16:18:20;99030.09;;;14.67;48.95
65718;BME280;52445;52.466;-1.016;2023-03-25T16:20:54;99027.94;;;14.54;49.45
65718;BME280;52445;52.466;-1.016;2023-03-25T16:23:23;99032.56;;;14.46;49.39
65718;BME280;52445;52.466;-1.016;2023-03-25T16:25:50;99032.69;;;14.43;50.07
65718;BME280;52445;52.466;-1.016;2023-03-25T16:28:26;99025.88;;;14.38;50.40
65718;BME280;52445;52.466;-1.016;2023-03-25T16:30:54;99041.69;;;14.32;49.73
65718;BME280;52445;52.466;-1.016;2023-03-25T16:33:27;99042.72;;;14.28;50.20